createdAt,value
2023-05-12T00:01:22.973Z,48.73
2023-05-12T00:03:54.500Z,48.68
2023-05-12T00:06:23.246Z,48.76
2023-05-12T00:08:52.105Z,49.15
2023-05-12T00:11:20.370Z,49.33
2023-05-12T00:13:49.197Z,49.37
2023-05-12T00:16:19.667Z,49.38
2023-05-12T00:18:48.528Z,49.62
2023-05-12T00:21:16.841Z,49.71
2023-05-12T00:23:45.173Z,49.53
2023-05-12T00:26:13.501Z,49.87
2023-05-12T00:28:41.796Z,50.20
2023-05-12T00:31:10.074Z,50.04
2023-05-12T00:33:38.657Z,49.92
2023-05-12T00:36:07.370Z,49.74
2023-05-12T00:38:35.671Z,49.90
2023-05-12T00:41:05.197Z,50.08
2023-05-12T00:43:34.485Z,50.01
2023-05-12T00:46:05.840Z,50.11
2023-05-12T00:48:38.043Z,50.18
2023-05-12T00:51:07.202Z,50.34
2023-05-12T00:53:48.126Z,50.41
2023-05-12T00:56:20.637Z,50.49
2023-05-12T00:58:49.329Z,50.48
2023-05-12T01:01:18.015Z,50.48
2023-05-12T01:03:47.294Z,50.49
2023-05-12T01:06:29.721Z,50.96
2023-05-12T01:08:59.124Z,51.02
2023-05-12T01:11:27.639Z,50.89
2023-05-12T01:13:56.143Z,50.85
2023-05-12T01:16:30.832Z,50.77
2023-05-12T01:18:59.834Z,50.83
2023-05-12T01:21:28.276Z,50.99
2023-05-12T01:24:00.539Z,51.17
2023-05-12T01:26:30.766Z,51.27
2023-05-12T01:28:59.621Z,51.45
2023-05-12T01:31:28.293Z,51.41
2023-05-12T01:33:56.511Z,51.62
2023-05-12T01:36:24.741Z,51.54
2023-05-12T01:38:53.017Z,51.88
2023-05-12T01:41:22.206Z,51.53
2023-05-12T01:43:50.412Z,51.76
2023-05-12T01:46:18.719Z,51.92
2023-05-12T01:48:47.122Z,51.99
2023-05-12T01:51:17.603Z,52.78
2023-05-12T01:53:45.790Z,52.87
2023-05-12T01:56:14.051Z,53.05
2023-05-12T01:58:42.273Z,53.10
2023-05-12T02:01:10.549Z,54.04
2023-05-12T02:03:38.888Z,53.83
2023-05-12T02:06:07.376Z,53.89
2023-05-12T02:08:35.588Z,54.41
2023-05-12T02:11:10.639Z,54.54
2023-05-12T02:13:38.874Z,55.30
2023-05-12T02:16:07.909Z,55.04
2023-05-12T02:18:36.168Z,56.13
2023-05-12T02:21:04.398Z,56.08
2023-05-12T02:23:32.760Z,57.22
2023-05-12T02:26:01.215Z,56.53
2023-05-12T02:28:29.466Z,56.76
2023-05-12T02:30:57.787Z,56.98
2023-05-12T02:33:25.997Z,56.91
2023-05-12T02:35:54.247Z,56.77
2023-05-12T02:38:22.801Z,57.36
2023-05-12T02:40:51.097Z,57.65
2023-05-12T02:43:19.372Z,57.95
2023-05-12T02:45:47.848Z,58.72
2023-05-12T02:48:16.078Z,58.52
2023-05-12T02:50:44.370Z,58.47
2023-05-12T02:53:12.624Z,58.75
2023-05-12T02:55:40.948Z,58.85
2023-05-12T02:58:09.538Z,59.86
2023-05-12T03:00:37.796Z,59.64
2023-05-12T03:03:06.104Z,59.87
2023-05-12T03:05:34.443Z,59.57
2023-05-12T03:08:03.029Z,59.51
2023-05-12T03:10:31.339Z,59.93
2023-05-12T03:12:59.584Z,60.00
2023-05-12T03:15:27.741Z,59.71
2023-05-12T03:17:55.959Z,59.98
2023-05-12T03:20:24.268Z,59.80
2023-05-12T03:22:52.731Z,60.16
2023-05-12T03:25:20.930Z,60.03
2023-05-12T03:27:49.518Z,60.51
2023-05-12T03:30:17.918Z,60.06
2023-05-12T03:32:47.118Z,60.26
2023-05-12T03:35:15.607Z,61.03
2023-05-12T03:37:43.787Z,60.64
2023-05-12T03:40:12.722Z,60.92
2023-05-12T03:42:41.027Z,61.36
2023-05-12T03:45:10.155Z,61.22
2023-05-12T03:47:39.340Z,61.29
2023-05-12T03:50:08.792Z,61.18
2023-05-12T03:52:39.234Z,61.13
2023-05-12T03:55:08.197Z,61.55
2023-05-12T03:57:37.636Z,61.38
2023-05-12T04:00:06.918Z,61.39
2023-05-12T04:02:35.508Z,62.04
2023-05-12T04:05:03.863Z,62.25
2023-05-12T04:07:32.082Z,61.81
2023-05-12T04:10:01.413Z,62.20
2023-05-12T04:12:29.674Z,62.18
2023-05-12T04:14:58.413Z,62.39
2023-05-12T04:17:26.688Z,62.38
2023-05-12T04:19:54.956Z,62.44
2023-05-12T04:22:25.633Z,62.54
2023-05-12T04:24:54.067Z,62.68
2023-05-12T04:27:22.296Z,62.65
2023-05-12T04:29:50.497Z,63.12
2023-05-12T04:32:19.203Z,62.78
2023-05-12T04:34:48.912Z,62.93
2023-05-12T04:37:17.070Z,63.04
2023-05-12T04:39:45.245Z,62.92
2023-05-12T04:42:13.405Z,62.69
2023-05-12T04:44:41.750Z,62.87
2023-05-12T04:47:09.967Z,62.55
2023-05-12T04:49:38.159Z,62.94
2023-05-12T04:52:06.855Z,62.95
2023-05-12T04:54:35.106Z,62.95
2023-05-12T04:57:04.341Z,63.09
2023-05-12T04:59:32.751Z,62.96
2023-05-12T05:02:01.186Z,63.20
2023-05-12T05:04:29.577Z,62.82
2023-05-12T05:06:57.853Z,63.27
2023-05-12T05:09:26.132Z,63.03
2023-05-12T05:11:54.325Z,63.21
2023-05-12T05:14:22.840Z,63.14
2023-05-12T05:16:51.125Z,63.13
2023-05-12T05:19:24.382Z,63.38
2023-05-12T05:21:58.352Z,63.50
2023-05-12T05:24:26.562Z,63.54
2023-05-12T05:26:54.800Z,63.50
2023-05-12T05:29:23.291Z,63.33
2023-05-12T05:31:51.624Z,63.55
2023-05-12T05:34:19.968Z,64.00
2023-05-12T05:36:48.806Z,63.84
2023-05-12T05:39:17.033Z,63.81
2023-05-12T05:41:45.280Z,63.52
2023-05-12T05:44:13.520Z,63.70
2023-05-12T05:46:41.875Z,63.62
2023-05-12T05:49:10.129Z,63.71
2023-05-12T05:51:38.283Z,63.52
2023-05-12T05:54:06.627Z,64.06
2023-05-12T05:56:36.894Z,63.77
2023-05-12T05:59:05.968Z,63.87
2023-05-12T06:01:34.340Z,63.82
2023-05-12T06:04:02.760Z,64.33
2023-05-12T06:06:31.101Z,63.98
2023-05-12T06:08:59.365Z,64.16
2023-05-12T06:11:27.556Z,64.19
2023-05-12T06:13:55.742Z,64.32
2023-05-12T06:16:23.940Z,64.58
2023-05-12T06:18:52.207Z,64.67
2023-05-12T06:21:20.406Z,64.63
2023-05-12T06:23:49.023Z,64.80
2023-05-12T06:26:17.223Z,64.88
2023-05-12T06:28:45.406Z,64.81
2023-05-12T06:31:13.613Z,64.65
2023-05-12T06:33:41.828Z,64.95
2023-05-12T06:36:11.433Z,64.77
2023-05-12T06:38:39.673Z,64.75
2023-05-12T06:41:07.985Z,64.62
2023-05-12T06:43:36.185Z,64.53
2023-05-12T06:46:04.391Z,65.44
2023-05-12T06:48:32.637Z,64.72
2023-05-12T06:51:00.891Z,64.84
2023-05-12T06:53:29.144Z,64.83
2023-05-12T06:55:57.330Z,64.76
2023-05-12T06:58:25.501Z,64.70
2023-05-12T07:00:53.656Z,65.36
2023-05-12T07:03:22.390Z,65.22
2023-05-12T07:05:50.579Z,65.77
2023-05-12T07:08:18.864Z,65.35
2023-05-12T07:10:47.512Z,65.63
2023-05-12T07:13:15.711Z,65.36
2023-05-12T07:15:44.139Z,65.63
2023-05-12T07:18:12.517Z,65.97
2023-05-12T07:20:40.762Z,66.10
2023-05-12T07:23:10.125Z,66.06
2023-05-12T07:25:38.574Z,66.25
2023-05-12T07:28:07.332Z,66.12
2023-05-12T07:30:35.901Z,66.38
2023-05-12T07:33:04.440Z,66.45
2023-05-12T07:35:32.731Z,66.24
2023-05-12T07:38:00.928Z,66.75
2023-05-12T07:40:29.126Z,66.65
2023-05-12T07:42:57.382Z,66.93
2023-05-12T07:45:26.082Z,66.54
2023-05-12T07:47:54.367Z,66.68
2023-05-12T07:50:22.734Z,66.60
2023-05-12T07:52:53.467Z,66.83
2023-05-12T07:55:23.481Z,66.43
2023-05-12T07:57:52.040Z,66.93
2023-05-12T08:00:20.554Z,66.46
2023-05-12T08:02:49.677Z,66.87
2023-05-12T08:05:18.844Z,66.89
2023-05-12T08:07:48.365Z,67.01
2023-05-12T08:10:16.557Z,66.99
2023-05-12T08:12:44.819Z,67.03
2023-05-12T08:15:13.319Z,66.89
2023-05-12T08:17:41.999Z,66.83
2023-05-12T08:20:10.990Z,67.34
2023-05-12T08:22:40.653Z,67.02
2023-05-12T08:25:11.734Z,66.91
2023-05-12T08:27:40.843Z,67.45
2023-05-12T08:30:10.298Z,67.51
2023-05-12T08:32:38.569Z,67.22
2023-05-12T08:35:07.313Z,67.38
2023-05-12T08:37:35.633Z,67.50
2023-05-12T08:40:04.977Z,67.75
2023-05-12T08:42:44.637Z,67.27
2023-05-12T08:45:13.350Z,67.49
2023-05-12T08:47:44.497Z,67.50
2023-05-12T08:50:13.919Z,67.75
2023-05-12T08:52:42.141Z,67.62
2023-05-12T08:55:11.132Z,67.68
2023-05-12T08:57:39.848Z,68.21
2023-05-12T09:00:09.684Z,68.01
2023-05-12T09:02:52.004Z,68.02
2023-05-12T09:05:22.384Z,68.21
2023-05-12T09:07:52.990Z,68.38
2023-05-12T09:10:34.194Z,68.17
2023-05-12T09:13:18.275Z,68.36
2023-05-12T09:15:49.615Z,68.36
2023-05-12T09:18:17.816Z,68.72
2023-05-12T09:20:46.364Z,68.75
2023-05-12T09:23:21.539Z,68.61
2023-05-12T09:26:03.702Z,68.36
2023-05-12T09:28:41.044Z,68.46
2023-05-12T09:31:16.972Z,68.66
2023-05-12T09:33:45.617Z,68.93
2023-05-12T09:36:27.098Z,68.54
2023-05-12T09:39:06.030Z,68.82
2023-05-12T09:41:44.239Z,68.95
2023-05-12T09:44:19.552Z,69.21
2023-05-12T09:46:49.464Z,69.55
2023-05-12T09:49:28.193Z,69.20
2023-05-12T09:52:00.491Z,69.35
2023-05-12T09:54:32.931Z,69.38
2023-05-12T09:57:09.490Z,69.47
2023-05-12T09:59:40.492Z,69.49
2023-05-12T10:02:10.858Z,69.68
2023-05-12T10:04:57.768Z,69.50
2023-05-12T10:07:28.884Z,69.73
2023-05-12T10:10:02.205Z,69.58
2023-05-12T10:12:30.607Z,69.78
2023-05-12T10:15:00.631Z,69.84
2023-05-12T10:17:33.048Z,69.54
2023-05-12T10:20:02.421Z,69.51
2023-05-12T10:22:34.532Z,69.51
2023-05-12T10:25:05.829Z,69.57
2023-05-12T10:27:34.851Z,69.64
2023-05-12T10:30:05.699Z,69.49
2023-05-12T10:32:34.271Z,69.93
2023-05-12T10:35:10.574Z,70.03
2023-05-12T10:37:38.762Z,70.11
2023-05-12T10:40:08.116Z,69.58
2023-05-12T10:42:54.211Z,69.92
2023-05-12T10:45:22.907Z,69.85
2023-05-12T10:47:51.342Z,69.79
2023-05-12T10:50:29.837Z,70.23
2023-05-12T10:52:58.702Z,69.97
2023-05-12T10:55:43.518Z,70.28
2023-05-12T10:58:13.287Z,70.24
2023-05-12T11:00:47.729Z,70.19
2023-05-12T11:03:20.513Z,69.77
2023-05-12T11:06:01.374Z,69.90
2023-05-12T11:08:30.522Z,70.21
2023-05-12T11:10:59.538Z,69.90
2023-05-12T11:13:29.491Z,70.18
2023-05-12T11:16:00.784Z,70.17
2023-05-12T11:18:29.019Z,70.46
2023-05-12T11:20:57.306Z,70.27
2023-05-12T11:23:28.162Z,70.36
2023-05-12T11:25:57.212Z,70.45
2023-05-12T11:28:25.562Z,70.37
2023-05-12T11:30:55.564Z,70.32
2023-05-12T11:33:24.502Z,70.74
2023-05-12T11:35:53.003Z,70.61
2023-05-12T11:38:25.178Z,70.61
2023-05-12T11:40:53.391Z,70.58
2023-05-12T11:43:23.379Z,70.57
2023-05-12T11:45:51.719Z,70.72
2023-05-12T11:48:22.139Z,70.82
2023-05-12T11:50:52.145Z,70.89
2023-05-12T11:53:20.727Z,70.88
2023-05-12T11:55:51.767Z,70.84
2023-05-12T11:58:27.359Z,71.17
2023-05-12T12:00:56.063Z,70.98
2023-05-12T12:03:25.883Z,71.01
2023-05-12T12:06:04.666Z,71.42
2023-05-12T12:08:33.334Z,71.23
2023-05-12T12:11:03.631Z,71.00
2023-05-12T12:13:32.100Z,71.30
2023-05-12T12:16:00.363Z,70.99
2023-05-12T12:18:28.610Z,70.98
2023-05-12T12:20:56.844Z,71.15
2023-05-12T12:23:25.041Z,70.93
2023-05-12T12:25:53.213Z,71.02
2023-05-12T12:28:21.533Z,71.02
2023-05-12T12:30:49.771Z,71.44
2023-05-12T12:33:20.332Z,71.01
2023-05-12T12:35:49.251Z,71.19
2023-05-12T12:38:17.474Z,70.90
2023-05-12T12:40:45.878Z,71.04
2023-05-12T12:43:14.673Z,71.43
2023-05-12T12:45:42.855Z,71.10
2023-05-12T12:48:11.192Z,71.45
2023-05-12T12:50:39.468Z,71.30
2023-05-12T12:53:07.708Z,71.34
2023-05-12T12:55:35.915Z,71.31
2023-05-12T12:58:04.192Z,71.07
2023-05-12T13:00:32.383Z,71.51
2023-05-12T13:03:01.447Z,71.32
2023-05-12T13:05:29.701Z,71.60
2023-05-12T13:07:57.909Z,71.56
2023-05-12T13:10:26.754Z,71.28
2023-05-12T13:12:54.943Z,71.30
2023-05-12T13:15:23.421Z,71.66
2023-05-12T13:17:52.651Z,71.22
2023-05-12T13:20:21.114Z,71.01
2023-05-12T13:22:49.825Z,71.07
2023-05-12T13:25:18.645Z,71.45
2023-05-12T13:27:47.089Z,71.10
2023-05-12T13:30:15.405Z,71.09
2023-05-12T13:32:43.749Z,71.25
2023-05-12T13:35:12.121Z,70.99
2023-05-12T13:37:40.293Z,70.95
2023-05-12T13:40:09.229Z,70.43
2023-05-12T13:42:37.417Z,70.36
2023-05-12T13:45:06.259Z,70.24
2023-05-12T13:47:34.481Z,70.30
2023-05-12T13:50:05.189Z,70.19
2023-05-12T13:52:33.462Z,70.09
2023-05-12T13:55:01.731Z,70.31
2023-05-12T13:57:30.046Z,70.16
2023-05-12T13:59:59.361Z,70.24
2023-05-12T14:02:27.901Z,70.09
2023-05-12T14:04:57.476Z,70.18
2023-05-12T14:07:26.244Z,70.29
2023-05-12T14:09:54.484Z,70.24
2023-05-12T14:12:26.220Z,70.08
2023-05-12T14:14:58.110Z,70.34
2023-05-12T14:17:30.294Z,70.44
2023-05-12T14:19:58.527Z,70.01
2023-05-12T14:22:26.909Z,70.13
2023-05-12T14:24:56.528Z,69.89
2023-05-12T14:27:24.962Z,69.91
2023-05-12T14:29:53.242Z,69.46
2023-05-12T14:32:21.520Z,69.31
2023-05-12T14:34:49.696Z,69.18
2023-05-12T14:37:17.935Z,68.96
2023-05-12T14:39:46.381Z,68.93
2023-05-12T14:42:14.702Z,68.66
2023-05-12T14:44:42.995Z,68.88
2023-05-12T14:47:11.223Z,69.14
2023-05-12T14:49:39.428Z,68.99
2023-05-12T14:52:07.732Z,68.73
2023-05-12T14:54:35.923Z,68.34
2023-05-12T14:57:04.931Z,68.36
2023-05-12T14:59:33.600Z,68.53
2023-05-12T15:02:01.831Z,68.30
2023-05-12T15:04:30.141Z,68.23
2023-05-12T15:06:58.525Z,68.02
2023-05-12T15:09:26.845Z,68.24
2023-05-12T15:11:55.939Z,67.90
2023-05-12T15:16:53.210Z,68.08
2023-05-12T15:19:22.185Z,67.76
2023-05-12T15:21:50.436Z,67.96
2023-05-12T15:24:18.646Z,67.58
2023-05-12T15:26:47.087Z,67.12
2023-05-12T15:29:15.546Z,67.30
2023-05-12T15:31:44.650Z,67.15
2023-05-12T15:34:12.903Z,67.42
2023-05-12T15:36:41.097Z,67.03
2023-05-12T15:39:09.786Z,66.76
2023-05-12T15:41:37.996Z,66.85
2023-05-12T15:44:07.097Z,67.13
2023-05-12T15:46:36.492Z,67.17
2023-05-12T15:49:04.765Z,66.75
2023-05-12T15:51:34.705Z,66.75
2023-05-12T15:54:03.568Z,66.61
2023-05-12T15:56:32.033Z,66.61
2023-05-12T15:59:00.285Z,66.22
2023-05-12T16:01:28.753Z,66.32
2023-05-12T16:03:57.144Z,66.03
2023-05-12T16:06:25.481Z,65.97
2023-05-12T16:08:54.057Z,65.93
2023-05-12T16:11:22.393Z,65.86
2023-05-12T16:13:53.633Z,65.57
2023-05-12T16:16:21.910Z,65.16
2023-05-12T16:18:50.121Z,64.93
2023-05-12T16:21:18.409Z,65.08
2023-05-12T16:23:46.917Z,65.22
2023-05-12T16:26:15.135Z,64.99
2023-05-12T16:28:43.312Z,64.79
2023-05-12T16:31:11.645Z,64.83
2023-05-12T16:33:39.927Z,64.79
2023-05-12T16:36:08.356Z,64.73
2023-05-12T16:38:36.834Z,64.38
2023-05-12T16:41:05.523Z,64.20
2023-05-12T16:43:33.758Z,64.53
2023-05-12T16:46:05.097Z,64.39
2023-05-12T16:48:37.099Z,63.79
2023-05-12T16:51:13.657Z,64.19
2023-05-12T16:53:42.107Z,63.59
2023-05-12T16:56:10.648Z,63.43
2023-05-12T16:58:39.039Z,63.32
2023-05-12T17:01:07.428Z,63.24
2023-05-12T17:03:35.920Z,62.72
2023-05-12T17:06:04.925Z,62.37
2023-05-12T17:08:36.244Z,63.03
2023-05-12T17:11:06.113Z,62.67
2023-05-12T17:13:37.584Z,62.55
2023-05-12T17:16:06.106Z,62.42
2023-05-12T17:19:13.507Z,62.33
2023-05-12T17:21:22.471Z,62.23
2023-05-12T17:23:51.423Z,62.04
2023-05-12T17:26:19.666Z,61.69
2023-05-12T17:28:48.143Z,61.51
2023-05-12T17:31:16.382Z,61.32
2023-05-12T17:33:44.595Z,61.49
2023-05-12T17:36:13.331Z,61.22
2023-05-12T17:38:42.252Z,60.98
2023-05-12T17:41:10.779Z,60.50
2023-05-12T17:43:38.988Z,60.47
2023-05-12T17:46:08.535Z,60.75
2023-05-12T17:48:36.905Z,60.32
2023-05-12T17:51:05.510Z,60.05
2023-05-12T17:53:34.416Z,59.80
2023-05-12T17:56:02.974Z,59.31
2023-05-12T17:58:31.512Z,59.48
2023-05-12T18:00:59.816Z,57.96
2023-05-12T18:03:28.302Z,57.78
2023-05-12T18:05:56.558Z,58.36
2023-05-12T18:08:24.766Z,57.98
2023-05-12T18:10:52.964Z,58.09
2023-05-12T18:13:21.234Z,57.83
2023-05-12T18:15:50.914Z,57.74
2023-05-12T18:18:19.224Z,57.90
2023-05-12T18:20:47.497Z,57.61
2023-05-12T18:23:15.714Z,57.15
2023-05-12T18:25:43.988Z,57.01
2023-05-12T18:28:12.235Z,56.08
2023-05-12T18:30:40.615Z,56.27
2023-05-12T18:33:08.885Z,56.21
2023-05-12T18:35:37.197Z,55.80
2023-05-12T18:38:05.655Z,56.20
2023-05-12T18:40:33.949Z,55.74
2023-05-12T18:43:02.633Z,55.57
2023-05-12T18:45:30.956Z,55.25
2023-05-12T18:47:59.234Z,53.69
2023-05-12T18:50:27.602Z,54.20
2023-05-12T18:52:56.000Z,54.33
2023-05-12T18:55:24.259Z,54.22
2023-05-12T18:57:52.785Z,54.15
2023-05-12T19:00:26.856Z,54.09
2023-05-12T19:02:55.470Z,53.54
2023-05-12T19:05:24.065Z,53.71
2023-05-12T19:07:52.542Z,53.50
2023-05-12T19:10:21.043Z,53.20
2023-05-12T19:12:51.698Z,53.18
2023-05-12T19:15:20.334Z,53.03
2023-05-12T19:17:50.454Z,52.71
2023-05-12T19:20:18.948Z,52.62
2023-05-12T19:22:47.405Z,51.75
2023-05-12T19:25:18.716Z,51.10
2023-05-12T19:27:47.478Z,51.09
2023-05-12T19:30:16.248Z,51.12
2023-05-12T19:32:46.984Z,51.22
2023-05-12T19:35:16.467Z,50.55
2023-05-12T19:37:44.823Z,50.87
2023-05-12T19:40:13.361Z,50.58
2023-05-12T19:42:43.110Z,49.79
2023-05-12T19:45:11.900Z,49.97
2023-05-12T19:47:40.372Z,49.54
2023-05-12T19:50:09.349Z,49.25
2023-05-12T19:52:38.170Z,49.51
2023-05-12T19:55:08.064Z,48.49
2023-05-12T19:57:36.606Z,48.34
2023-05-12T20:00:05.307Z,48.58
2023-05-12T20:02:33.638Z,48.09
2023-05-12T20:05:02.292Z,47.67
2023-05-12T20:07:30.510Z,47.55
2023-05-12T20:09:58.891Z,47.32
2023-05-12T20:12:27.125Z,47.11
2023-05-12T20:14:55.427Z,46.67
2023-05-12T20:17:23.977Z,46.70
2023-05-12T20:19:52.207Z,46.38
2023-05-12T20:22:20.382Z,45.72
2023-05-12T20:24:48.854Z,45.12
2023-05-12T20:27:17.054Z,45.53
2023-05-12T20:29:45.411Z,45.03
2023-05-12T20:32:14.467Z,44.68
2023-05-12T20:34:43.045Z,43.70
2023-05-12T20:37:11.273Z,43.82
2023-05-12T20:39:39.477Z,44.27
2023-05-12T20:42:10.867Z,44.04
2023-05-12T20:44:39.064Z,42.72
2023-05-12T20:47:07.471Z,43.10
2023-05-12T20:49:35.760Z,43.17
2023-05-12T20:52:04.108Z,43.47
2023-05-12T20:54:32.439Z,42.62
2023-05-12T20:57:00.665Z,42.83
2023-05-12T20:59:28.949Z,42.59
2023-05-12T21:01:57.331Z,42.36
2023-05-12T21:04:25.797Z,42.38
2023-05-12T21:06:54.172Z,42.41
2023-05-12T21:09:22.364Z,42.54
2023-05-12T21:11:50.551Z,41.70
2023-05-12T21:14:18.758Z,41.01
2023-05-12T21:16:47.178Z,41.59
2023-05-12T21:19:15.414Z,40.96
2023-05-12T21:21:43.737Z,41.34
2023-05-12T21:24:12.142Z,41.32
2023-05-12T21:26:40.395Z,40.78
2023-05-12T21:29:08.600Z,40.68
2023-05-12T21:31:37.051Z,40.42
2023-05-12T21:34:05.264Z,40.41
2023-05-12T21:36:34.979Z,40.04
2023-05-12T21:39:03.329Z,39.81
2023-05-12T21:41:31.566Z,39.06
2023-05-12T21:43:59.741Z,37.82
2023-05-12T21:46:28.024Z,38.17
2023-05-12T21:48:56.339Z,39.15
2023-05-12T21:51:24.566Z,38.56
2023-05-12T21:53:55.376Z,39.51
2023-05-12T21:56:23.932Z,39.18
2023-05-12T21:58:52.368Z,38.47
2023-05-12T22:01:20.764Z,39.17
2023-05-12T22:03:49.335Z,39.27
2023-05-12T22:06:17.920Z,39.82
2023-05-12T22:08:46.122Z,39.38
2023-05-12T22:11:14.716Z,39.73
2023-05-12T22:13:43.043Z,39.20
2023-05-12T22:16:11.292Z,40.06
2023-05-12T22:18:39.633Z,39.54
2023-05-12T22:21:07.862Z,39.75
2023-05-12T22:23:36.657Z,39.74
2023-05-12T22:26:05.104Z,39.88
2023-05-12T22:28:33.381Z,39.45
2023-05-12T22:31:01.665Z,39.97
2023-05-12T22:33:29.961Z,39.89
2023-05-12T22:36:04.010Z,39.62
2023-05-12T22:38:32.369Z,39.81
2023-05-12T22:41:00.666Z,40.04
2023-05-12T22:43:29.091Z,39.96
2023-05-12T22:45:57.490Z,40.75
2023-05-12T22:48:25.737Z,40.62
2023-05-12T22:50:56.981Z,40.40
2023-05-12T22:53:25.201Z,40.99
2023-05-12T22:55:53.436Z,41.04
2023-05-12T22:58:21.782Z,41.28
2023-05-12T23:00:50.032Z,41.33
2023-05-12T23:03:18.300Z,41.67
2023-05-12T23:05:47.127Z,41.84
2023-05-12T23:08:15.935Z,42.29
2023-05-12T23:10:44.143Z,42.86
2023-05-12T23:13:12.481Z,43.21
2023-05-12T23:15:40.705Z,43.40
2023-05-12T23:18:09.067Z,43.70
2023-05-12T23:20:37.485Z,43.75
2023-05-12T23:23:05.745Z,44.05
2023-05-12T23:25:35.955Z,44.42
2023-05-12T23:28:04.154Z,44.63
2023-05-12T23:30:34.193Z,45.12
2023-05-12T23:33:02.518Z,45.35
2023-05-12T23:35:30.880Z,45.73
2023-05-12T23:37:59.162Z,45.71
2023-05-12T23:40:27.659Z,46.11
2023-05-12T23:42:55.890Z,46.09
2023-05-12T23:45:24.087Z,46.60
2023-05-12T23:47:52.442Z,46.22
2023-05-12T23:50:20.937Z,46.44
2023-05-12T23:52:49.698Z,46.73
2023-05-12T23:55:18.032Z,46.66
2023-05-12T23:57:46.932Z,47.36
